Time;durP1;ratioP1;P1;durP2;ratioP2;P2;SDS_P1;SDS_P2;PMS_P1;PMS_P2;Temp;Humidity;BMP_temperature;BMP_pressure;BME280_temperature;BME280_humidity;BME280_pressure;Samples;Min_cycle;Max_cycle;Signal;HPM_P1;HPM_P2
2022/11/15 00:01:00;;;;;;;60.70;55.13;;;;;;;;;;5039374;28;20648;-57
2022/11/15 00:03:27;;;;;;;57.40;52.00;;;;;;;;;;5036643;28;20807;-57
2022/11/15 00:05:52;;;;;;;60.67;55.33;;;;;;;;;;5030904;28;20190;-56
2022/11/15 00:08:17;;;;;;;60.37;54.80;;;;;;;;;;5033791;28;21195;-56
2022/11/15 00:10:42;;;;;;;63.23;57.60;;;;;;;;;;5031721;28;20847;-56
2022/11/15 00:13:08;;;;;;;63.40;57.30;;;;;;;;;;5033836;28;20280;-56
2022/11/15 00:15:34;;;;;;;58.60;52.90;;;;;;;;;;5038051;28;20182;-56
2022/11/15 00:17:59;;;;;;;59.37;53.93;;;;;;;;;;5041774;28;20613;-57
2022/11/15 00:20:25;;;;;;;59.33;53.00;;;;;;;;;;5045475;28;20200;-57
2022/11/15 00:22:50;;;;;;;59.00;53.00;;;;;;;;;;5042197;28;20627;-57
2022/11/15 00:25:15;;;;;;;62.57;56.77;;;;;;;;;;5042265;28;20178;-56
2022/11/15 00:27:40;;;;;;;63.40;57.70;;;;;;;;;;5043524;28;20184;-57
2022/11/15 00:30:05;;;;;;;61.77;56.00;;;;;;;;;;5035726;28;20176;-55
2022/11/15 00:32:31;;;;;;;58.40;52.50;;;;;;;;;;5039358;28;20175;-56
2022/11/15 00:34:56;;;;;;;66.17;60.17;;;;;;;;;;5039415;28;20186;-55
2022/11/15 00:37:21;;;;;;;62.92;57.13;;;;;;;;;;5032959;28;20266;-55
2022/11/15 00:39:46;;;;;;;63.50;57.50;;;;;;;;;;5040865;28;20697;-55
2022/11/15 00:42:12;;;;;;;64.63;58.60;;;;;;;;;;5041127;28;20243;-56
2022/11/15 00:44:37;;;;;;;65.87;59.53;;;;;;;;;;5043217;28;20206;-55
2022/11/15 00:47:02;;;;;;;60.83;54.50;;;;;;;;;;5036217;28;20226;-55
2022/11/15 00:49:27;;;;;;;66.97;60.67;;;;;;;;;;5032589;28;20197;-55
2022/11/15 00:51:52;;;;;;;64.63;58.87;;;;;;;;;;5031604;28;20195;-55
2022/11/15 00:54:17;;;;;;;61.17;54.73;;;;;;;;;;5042714;28;20226;-54
2022/11/15 00:56:42;;;;;;;62.13;55.38;;;;;;;;;;5036352;28;20241;-55
2022/11/15 00:59:08;;;;;;;60.30;53.80;;;;;;;;;;5040467;28;20659;-55
2022/11/15 01:01:33;;;;;;;65.80;59.40;;;;;;;;;;5030183;28;20183;-55
2022/11/15 01:03:58;;;;;;;60.33;54.03;;;;;;;;;;5033155;28;20258;-55
2022/11/15 01:06:23;;;;;;;64.53;58.50;;;;;;;;;;5043591;28;20184;-56
2022/11/15 01:08:48;;;;;;;63.90;57.90;;;;;;;;;;5037479;28;20178;-56
2022/11/15 01:11:13;;;;;;;64.23;58.17;;;;;;;;;;5050182;28;20194;-56
2022/11/15 01:13:39;;;;;;;60.57;54.03;;;;;;;;;;5035721;28;20610;-56
2022/11/15 01:16:09;;;;;;;61.97;55.47;;;;;;;;;;5048637;28;20268;-56
2022/11/15 01:18:34;;;;;;;61.53;54.00;;;;;;;;;;5049702;28;20228;-55
2022/11/15 01:20:59;;;;;;;68.03;61.60;;;;;;;;;;5049122;28;21000;-56
2022/11/15 01:23:24;;;;;;;69.20;62.70;;;;;;;;;;5050777;28;20192;-55
2022/11/15 01:25:49;;;;;;;70.70;63.90;;;;;;;;;;5039859;28;20210;-55
2022/11/15 01:28:14;;;;;;;69.83;63.30;;;;;;;;;;5043895;28;20184;-56
2022/11/15 01:30:40;;;;;;;60.77;54.37;;;;;;;;;;5038553;28;20228;-55
2022/11/15 01:33:05;;;;;;;64.93;57.93;;;;;;;;;;5041409;28;20635;-55
2022/11/15 01:35:30;;;;;;;71.97;65.13;;;;;;;;;;5044055;28;20179;-56
2022/11/15 01:37:55;;;;;;;70.83;64.03;;;;;;;;;;5052685;28;20586;-56
2022/11/15 01:40:20;;;;;;;73.00;66.23;;;;;;;;;;5040418;28;20238;-55
2022/11/15 01:42:46;;;;;;;72.60;65.80;;;;;;;;;;5036769;28;20186;-55
2022/11/15 01:45:13;;;;;;;67.47;61.07;;;;;;;;;;5046154;28;20204;-55
2022/11/15 01:47:40;;;;;;;63.60;56.80;;;;;;;;;;5044381;28;20204;-55
2022/11/15 01:50:08;;;;;;;67.23;60.67;;;;;;;;;;5035095;28;20605;-55
2022/11/15 01:52:34;;;;;;;69.87;63.07;;;;;;;;;;5032509;28;21135;-56
2022/11/15 01:54:59;;;;;;;68.43;61.83;;;;;;;;;;5044275;28;20628;-55
2022/11/15 01:57:24;;;;;;;70.93;64.43;;;;;;;;;;5047962;28;20605;-55
2022/11/15 01:59:50;;;;;;;68.83;62.23;;;;;;;;;;5033071;28;20545;-56
2022/11/15 02:02:15;;;;;;;67.93;61.60;;;;;;;;;;5041360;28;20214;-56
2022/11/15 02:04:41;;;;;;;70.33;63.60;;;;;;;;;;5033828;28;20697;-56
2022/11/15 02:07:08;;;;;;;69.30;62.70;;;;;;;;;;5047046;28;20638;-56
2022/11/15 02:09:35;;;;;;;67.80;61.40;;;;;;;;;;5049632;28;21022;-56
2022/11/15 02:12:00;;;;;;;67.87;61.07;;;;;;;;;;5033903;28;20704;-56
2022/11/15 02:14:27;;;;;;;68.90;62.13;;;;;;;;;;5043998;28;20610;-56
2022/11/15 02:17:00;;;;;;;67.07;60.57;;;;;;;;;;5037719;28;20186;-56
2022/11/15 02:19:25;;;;;;;69.33;62.60;;;;;;;;;;5047963;28;20701;-56
2022/11/15 02:21:59;;;;;;;68.97;62.35;;;;;;;;;;5036838;28;20604;-55
2022/11/15 02:24:38;;;;;;;67.20;60.67;;;;;;;;;;5033685;28;20194;-55
2022/11/15 02:27:16;;;;;;;68.57;61.87;;;;;;;;;;5042519;28;21170;-55
2022/11/15 02:29:54;;;;;;;66.57;60.27;;;;;;;;;;5037091;28;20613;-55
2022/11/15 02:32:52;;;;;;;64.93;58.80;;;;;;;;;;5032409;28;20622;-56
2022/11/15 02:35:20;;;;;;;64.50;58.20;;;;;;;;;;5023795;28;20826;-57
2022/11/15 02:37:59;;;;;;;65.03;58.77;;;;;;;;;;5031842;28;20585;-57
2022/11/15 02:40:30;;;;;;;62.90;56.90;;;;;;;;;;5045661;28;20674;-57
2022/11/15 02:45:44;;;;;;;63.83;57.57;;;;;;;;;;5042147;28;21186;-57
2022/11/15 02:48:10;;;;;;;63.90;57.93;;;;;;;;;;5050907;28;20583;-57
2022/11/15 02:50:36;;;;;;;62.10;56.07;;;;;;;;;;5046726;28;20615;-56
2022/11/15 02:53:01;;;;;;;65.13;59.03;;;;;;;;;;5047835;28;20656;-54
2022/11/15 02:55:26;;;;;;;62.50;56.50;;;;;;;;;;5032969;28;20562;-55
2022/11/15 02:57:52;;;;;;;65.93;59.53;;;;;;;;;;5031380;28;20644;-56
2022/11/15 03:00:21;;;;;;;62.43;56.40;;;;;;;;;;5035674;28;20211;-55
2022/11/15 03:02:53;;;;;;;62.13;56.20;;;;;;;;;;5050531;28;20605;-55
2022/11/15 03:05:28;;;;;;;63.40;57.30;;;;;;;;;;5044294;28;20651;-56
2022/11/15 03:07:54;;;;;;;65.27;59.00;;;;;;;;;;5047109;28;21234;-56
2022/11/15 03:10:36;;;;;;;62.75;56.75;;;;;;;;;;5031610;28;20982;-56
2022/11/15 03:13:07;;;;;;;62.93;56.73;;;;;;;;;;5032188;28;20203;-56
2022/11/15 03:15:36;;;;;;;60.60;54.70;;;;;;;;;;5038486;28;20616;-56
2022/11/15 03:18:04;;;;;;;60.53;54.57;;;;;;;;;;5048521;28;20606;-55
2022/11/15 03:20:30;;;;;;;64.27;57.67;;;;;;;;;;5045849;28;20679;-55
2022/11/15 03:22:58;;;;;;;63.73;57.53;;;;;;;;;;5034345;28;20669;-56
2022/11/15 03:25:25;;;;;;;61.83;55.50;;;;;;;;;;5031057;28;20638;-56
2022/11/15 03:27:52;;;;;;;63.00;56.87;;;;;;;;;;5034285;28;21183;-56
2022/11/15 03:30:18;;;;;;;60.43;54.60;;;;;;;;;;5031855;28;20950;-55
2022/11/15 03:32:59;;;;;;;64.27;57.87;;;;;;;;;;5045192;28;20711;-55
2022/11/15 03:35:27;;;;;;;62.93;56.30;;;;;;;;;;5046470;28;20238;-56
2022/11/15 03:37:56;;;;;;;60.67;54.70;;;;;;;;;;5032329;28;20605;-56
2022/11/15 03:40:25;;;;;;;59.23;53.40;;;;;;;;;;5035885;28;20994;-56
2022/11/15 03:42:56;;;;;;;61.83;55.43;;;;;;;;;;5044725;28;20629;-56
2022/11/15 03:45:31;;;;;;;62.47;56.40;;;;;;;;;;5045769;28;20631;-56
2022/11/15 03:48:10;;;;;;;56.93;50.63;;;;;;;;;;5050102;28;20734;-56
2022/11/15 03:50:35;;;;;;;56.17;49.40;;;;;;;;;;5043170;28;20612;-56
2022/11/15 03:53:01;;;;;;;62.03;55.90;;;;;;;;;;5030914;28;21210;-56
2022/11/15 03:55:26;;;;;;;59.80;54.00;;;;;;;;;;5043313;28;20191;-57
2022/11/15 03:57:53;;;;;;;56.13;49.80;;;;;;;;;;5042075;28;20181;-56
2022/11/15 04:00:19;;;;;;;60.63;54.67;;;;;;;;;;5029381;28;20258;-56
2022/11/15 04:02:44;;;;;;;61.67;55.33;;;;;;;;;;5030274;28;20594;-56
2022/11/15 04:05:09;;;;;;;56.90;49.43;;;;;;;;;;5029764;28;20190;-56
2022/11/15 04:07:34;;;;;;;53.80;47.90;;;;;;;;;;5030742;28;20181;-57
2022/11/15 04:10:02;;;;;;;62.17;55.90;;;;;;;;;;5037033;28;20175;-55
2022/11/15 04:12:39;;;;;;;60.57;54.57;;;;;;;;;;5039343;28;20289;-56
2022/11/15 04:15:08;;;;;;;55.27;49.50;;;;;;;;;;5026863;28;20629;-55
2022/11/15 04:18:06;;;;;;;55.60;47.47;;;;;;;;;;5034591;28;20697;-55
2022/11/15 04:26:09;;;;;;;59.97;54.03;;;;;;;;;;5040999;28;20591;-55
2022/11/15 04:28:34;;;;;;;58.70;50.37;;;;;;;;;;5028979;28;20613;-55
2022/11/15 04:30:59;;;;;;;57.90;52.30;;;;;;;;;;5029516;28;20706;-55
2022/11/15 04:33:25;;;;;;;54.60;47.80;;;;;;;;;;5031812;28;20275;-55
2022/11/15 04:38:34;;;;;;;58.17;52.53;;;;;;;;;;5045516;28;20178;-55
2022/11/15 04:41:00;;;;;;;51.37;45.93;;;;;;;;;;5044468;28;20648;-55
2022/11/15 04:43:25;;;;;;;57.73;52.03;;;;;;;;;;5042860;28;21058;-55
2022/11/15 04:45:50;;;;;;;60.40;54.47;;;;;;;;;;5047984;28;20256;-55
2022/11/15 04:48:15;;;;;;;54.83;48.60;;;;;;;;;;5051091;28;20173;-55
2022/11/15 04:50:40;;;;;;;57.53;51.30;;;;;;;;;;5047790;28;20677;-56
2022/11/15 04:53:06;;;;;;;61.95;55.90;;;;;;;;;;5036519;28;20234;-55
2022/11/15 04:55:31;;;;;;;58.13;51.63;;;;;;;;;;5057840;28;20642;-56
2022/11/15 04:57:57;;;;;;;57.80;51.80;;;;;;;;;;5066556;28;20201;-55
2022/11/15 05:00:22;;;;;;;59.53;53.80;;;;;;;;;;5049998;28;20206;-56
2022/11/15 05:05:31;;;;;;;57.43;49.67;;;;;;;;;;5050536;28;20190;-56
2022/11/15 05:07:56;;;;;;;60.00;54.03;;;;;;;;;;5033731;28;20601;-56
2022/11/15 05:10:22;;;;;;;59.93;54.00;;;;;;;;;;5048868;28;20268;-56
2022/11/15 05:12:47;;;;;;;58.87;52.93;;;;;;;;;;5050412;28;20200;-56
2022/11/15 05:15:12;;;;;;;58.73;52.93;;;;;;;;;;5048606;28;20193;-57
2022/11/15 05:17:37;;;;;;;54.27;48.40;;;;;;;;;;5046367;28;20183;-55
2022/11/15 05:20:03;;;;;;;61.70;55.60;;;;;;;;;;5037366;28;20213;-54
2022/11/15 05:22:28;;;;;;;61.43;55.23;;;;;;;;;;5034655;28;20185;-56
2022/11/15 05:24:53;;;;;;;60.90;55.00;;;;;;;;;;5040794;28;20559;-55
2022/11/15 05:27:18;;;;;;;53.17;47.47;;;;;;;;;;5040325;28;20204;-57
2022/11/15 05:29:43;;;;;;;60.57;54.57;;;;;;;;;;5036914;28;20186;-55
2022/11/15 05:32:09;;;;;;;60.72;54.85;;;;;;;;;;5046665;28;20567;-56
2022/11/15 05:34:34;;;;;;;56.43;49.23;;;;;;;;;;5041792;28;20187;-55
2022/11/15 05:37:00;;;;;;;56.20;50.40;;;;;;;;;;5045429;28;20550;-55
2022/11/15 05:39:25;;;;;;;60.47;54.60;;;;;;;;;;5035658;28;20585;-55
2022/11/15 05:41:54;;;;;;;54.60;48.70;;;;;;;;;;5035847;28;20200;-55
2022/11/15 05:44:21;;;;;;;57.50;50.80;;;;;;;;;;5043699;28;20180;-55
2022/11/15 05:46:48;;;;;;;57.40;51.67;;;;;;;;;;5047705;28;20580;-55
2022/11/15 05:49:15;;;;;;;59.20;53.27;;;;;;;;;;5044655;28;20620;-54
2022/11/15 05:51:41;;;;;;;59.07;52.90;;;;;;;;;;5035687;28;20582;-55
2022/11/15 05:54:07;;;;;;;55.87;49.73;;;;;;;;;;5036569;28;21277;-55
2022/11/15 05:56:32;;;;;;;52.80;44.93;;;;;;;;;;5031766;28;20701;-55
2022/11/15 05:58:58;;;;;;;61.10;55.10;;;;;;;;;;5044937;28;20172;-54
2022/11/15 06:01:24;;;;;;;53.13;46.40;;;;;;;;;;5038397;28;20201;-55
2022/11/15 06:03:50;;;;;;;56.27;50.77;;;;;;;;;;5034854;28;20167;-55
2022/11/15 06:06:15;;;;;;;56.37;47.10;;;;;;;;;;5035439;28;21278;-56
2022/11/15 06:08:40;;;;;;;61.10;54.80;;;;;;;;;;5037173;28;20174;-55
2022/11/15 06:11:06;;;;;;;57.80;48.83;;;;;;;;;;5037953;28;20831;-56
2022/11/15 06:13:32;;;;;;;54.00;47.73;;;;;;;;;;5047491;28;20432;-55
2022/11/15 06:15:57;;;;;;;59.80;53.80;;;;;;;;;;5041886;28;20601;-56
2022/11/15 06:18:22;;;;;;;59.03;53.23;;;;;;;;;;5032614;28;20186;-56
2022/11/15 06:20:47;;;;;;;55.07;46.70;;;;;;;;;;5048472;28;20722;-56
2022/11/15 06:23:13;;;;;;;53.47;47.17;;;;;;;;;;5042243;28;20176;-55
2022/11/15 06:25:38;;;;;;;58.40;52.60;;;;;;;;;;5032231;28;20178;-55
2022/11/15 06:28:03;;;;;;;57.43;51.93;;;;;;;;;;5031798;28;20183;-55
2022/11/15 06:30:28;;;;;;;51.77;46.23;;;;;;;;;;5031975;28;20659;-55
2022/11/15 06:33:01;;;;;;;58.73;49.33;;;;;;;;;;5037057;28;20174;-55
2022/11/15 06:35:26;;;;;;;59.30;53.33;;;;;;;;;;5051943;28;20179;-55
2022/11/15 06:37:51;;;;;;;55.60;47.97;;;;;;;;;;5051748;28;20580;-55
2022/11/15 06:40:16;;;;;;;56.95;51.20;;;;;;;;;;5051760;28;20291;-55
2022/11/15 06:42:42;;;;;;;58.20;52.30;;;;;;;;;;5032911;28;20263;-55
2022/11/15 06:45:07;;;;;;;60.27;48.60;;;;;;;;;;5049495;28;20661;-55
2022/11/15 06:47:32;;;;;;;57.13;50.97;;;;;;;;;;5051646;28;20173;-56
2022/11/15 06:49:57;;;;;;;55.47;49.80;;;;;;;;;;5051588;28;20201;-55
2022/11/15 06:52:22;;;;;;;54.45;48.83;;;;;;;;;;5051696;28;20528;-55
2022/11/15 06:54:48;;;;;;;59.07;53.07;;;;;;;;;;5036682;28;20242;-55
2022/11/15 06:57:13;;;;;;;54.47;46.63;;;;;;;;;;5031009;28;20189;-55
2022/11/15 06:59:38;;;;;;;58.50;52.60;;;;;;;;;;5033067;28;20194;-55
2022/11/15 07:02:03;;;;;;;57.30;51.50;;;;;;;;;;5033122;28;20176;-55
2022/11/15 07:04:29;;;;;;;59.13;53.20;;;;;;;;;;5035541;28;20648;-55
2022/11/15 07:06:54;;;;;;;55.87;50.47;;;;;;;;;;5037785;28;20224;-56
2022/11/15 07:09:19;;;;;;;57.93;51.80;;;;;;;;;;5048160;28;20175;-55
2022/11/15 07:11:44;;;;;;;54.03;48.63;;;;;;;;;;5046459;28;20201;-55
2022/11/15 07:14:09;;;;;;;51.73;46.67;;;;;;;;;;5039397;28;20511;-55
2022/11/15 07:16:35;;;;;;;54.30;49.03;;;;;;;;;;5033225;28;20260;-56
2022/11/15 07:19:01;;;;;;;54.73;49.60;;;;;;;;;;5038959;28;20173;-55
2022/11/15 07:21:26;;;;;;;54.33;49.17;;;;;;;;;;5048512;28;20635;-56
2022/11/15 07:23:51;;;;;;;51.90;46.57;;;;;;;;;;5034404;28;20312;-56
2022/11/15 07:26:16;;;;;;;57.00;51.40;;;;;;;;;;5031568;28;20184;-56
2022/11/15 07:28:41;;;;;;;58.10;52.17;;;;;;;;;;5030967;28;20184;-56
2022/11/15 07:31:07;;;;;;;54.57;49.10;;;;;;;;;;5032205;28;20179;-56
2022/11/15 07:33:33;;;;;;;55.73;50.43;;;;;;;;;;5031378;28;20181;-55
2022/11/15 07:36:01;;;;;;;55.53;50.03;;;;;;;;;;5032906;28;20679;-56
2022/11/15 07:38:26;;;;;;;52.50;47.50;;;;;;;;;;5049106;28;20674;-56
2022/11/15 07:40:59;;;;;;;53.03;47.80;;;;;;;;;;5050897;28;20634;-56
2022/11/15 07:43:24;;;;;;;53.17;47.63;;;;;;;;;;5050551;28;20184;-57
2022/11/15 07:45:50;;;;;;;54.80;49.20;;;;;;;;;;5050990;28;20612;-55
2022/11/15 07:48:15;;;;;;;53.83;48.63;;;;;;;;;;5032626;28;20731;-55
2022/11/15 07:50:40;;;;;;;52.30;47.10;;;;;;;;;;5030966;28;20176;-56
2022/11/15 07:53:06;;;;;;;53.10;47.60;;;;;;;;;;5030506;28;20664;-56
2022/11/15 07:55:31;;;;;;;48.67;43.97;;;;;;;;;;5030638;28;20581;-56
2022/11/15 07:58:00;;;;;;;51.10;46.00;;;;;;;;;;5040635;28;20654;-55
2022/11/15 08:00:25;;;;;;;52.93;47.83;;;;;;;;;;5050788;28;20211;-56
2022/11/15 08:02:50;;;;;;;50.20;45.10;;;;;;;;;;5050836;28;20707;-55
2022/11/15 08:05:15;;;;;;;49.10;44.13;;;;;;;;;;5048389;28;20200;-56
2022/11/15 08:07:40;;;;;;;48.73;44.10;;;;;;;;;;5048749;28;20636;-56
2022/11/15 08:10:07;;;;;;;47.03;42.67;;;;;;;;;;5050293;28;20594;-55
2022/11/15 08:12:32;;;;;;;46.30;41.70;;;;;;;;;;5050264;28;20287;-55
2022/11/15 08:14:58;;;;;;;46.97;42.30;;;;;;;;;;5050181;28;20711;-55
2022/11/15 08:17:23;;;;;;;44.70;40.40;;;;;;;;;;5048712;28;20179;-56
2022/11/15 08:19:49;;;;;;;46.10;42.00;;;;;;;;;;5038561;28;20685;-56
2022/11/15 08:22:14;;;;;;;45.37;41.17;;;;;;;;;;5030138;28;20573;-56
2022/11/15 08:24:39;;;;;;;47.10;42.43;;;;;;;;;;5029930;28;20258;-56
2022/11/15 08:27:04;;;;;;;45.30;41.10;;;;;;;;;;5030216;28;20187;-55
2022/11/15 08:29:30;;;;;;;42.77;38.67;;;;;;;;;;5038959;28;20186;-55
2022/11/15 08:31:55;;;;;;;44.50;40.23;;;;;;;;;;5050421;28;20172;-55
2022/11/15 08:34:20;;;;;;;44.50;40.03;;;;;;;;;;5049779;28;20181;-56
2022/11/15 08:36:46;;;;;;;44.57;40.23;;;;;;;;;;5050309;28;20573;-56
2022/11/15 08:39:12;;;;;;;43.20;39.00;;;;;;;;;;5047678;28;20180;-56
2022/11/15 08:41:37;;;;;;;43.93;39.80;;;;;;;;;;5044176;28;20199;-56
2022/11/15 08:44:02;;;;;;;44.40;40.10;;;;;;;;;;5045242;28;21141;-55
2022/11/15 08:46:27;;;;;;;43.27;39.27;;;;;;;;;;5026710;28;20602;-54
2022/11/15 08:48:53;;;;;;;42.77;38.80;;;;;;;;;;5030605;28;20685;-54
2022/11/15 08:51:18;;;;;;;41.17;37.10;;;;;;;;;;5030335;28;20243;-53
2022/11/15 08:53:43;;;;;;;41.20;37.20;;;;;;;;;;5029935;28;20232;-55
2022/11/15 08:56:09;;;;;;;42.43;38.00;;;;;;;;;;5029883;28;20188;-55
2022/11/15 08:58:34;;;;;;;44.23;40.03;;;;;;;;;;5030167;28;20186;-57
2022/11/15 09:01:00;;;;;;;43.40;39.20;;;;;;;;;;5029978;28;20728;-56
2022/11/15 09:03:25;;;;;;;43.73;39.50;;;;;;;;;;5030135;28;20208;-55
2022/11/15 09:06:00;;;;;;;42.53;38.37;;;;;;;;;;5030323;28;20170;-55
2022/11/15 09:08:25;;;;;;;43.57;39.57;;;;;;;;;;5035003;28;20171;-56
2022/11/15 09:10:51;;;;;;;43.23;39.27;;;;;;;;;;5048097;28;20665;-55
2022/11/15 09:13:16;;;;;;;42.43;38.40;;;;;;;;;;5049786;28;20559;-57
2022/11/15 09:15:42;;;;;;;41.67;37.70;;;;;;;;;;5050242;28;20209;-57
2022/11/15 09:18:07;;;;;;;42.13;38.00;;;;;;;;;;5050044;28;20177;-56
2022/11/15 09:20:33;;;;;;;40.97;37.30;;;;;;;;;;5048342;28;20210;-56
2022/11/15 09:23:01;;;;;;;41.47;37.40;;;;;;;;;;5049741;28;20184;-56
2022/11/15 09:25:27;;;;;;;39.57;35.83;;;;;;;;;;5050583;28;20760;-57
2022/11/15 09:27:52;;;;;;;42.77;38.60;;;;;;;;;;5052050;28;20609;-56
2022/11/15 09:30:17;;;;;;;40.90;37.20;;;;;;;;;;5033317;28;20595;-56
2022/11/15 09:32:42;;;;;;;42.03;38.23;;;;;;;;;;5033104;28;20169;-55
2022/11/15 09:35:08;;;;;;;39.67;36.00;;;;;;;;;;5030987;28;20179;-56
2022/11/15 09:37:33;;;;;;;38.87;35.33;;;;;;;;;;5033246;28;20190;-56
2022/11/15 09:39:58;;;;;;;40.27;36.47;;;;;;;;;;5037897;28;20196;-56
2022/11/15 09:42:30;;;;;;;38.47;35.07;;;;;;;;;;5052866;28;20189;-55
2022/11/15 09:45:04;;;;;;;38.67;35.17;;;;;;;;;;5053200;28;20172;-55
2022/11/15 09:47:47;;;;;;;37.23;33.83;;;;;;;;;;5053297;28;20586;-55
2022/11/15 09:50:14;;;;;;;38.33;34.93;;;;;;;;;;5035029;28;20683;-55
2022/11/15 09:52:42;;;;;;;35.90;32.10;;;;;;;;;;5032631;28;20707;-55
2022/11/15 09:55:09;;;;;;;37.13;33.67;;;;;;;;;;5032847;28;20600;-56
2022/11/15 09:57:34;;;;;;;35.87;32.67;;;;;;;;;;5033121;28;20576;-56
2022/11/15 10:00:05;;;;;;;37.38;34.17;;;;;;;;;;5032707;28;20644;-57
2022/11/15 10:02:30;;;;;;;36.07;32.87;;;;;;;;;;5032554;28;20262;-55
2022/11/15 10:04:58;;;;;;;36.83;33.28;;;;;;;;;;5037874;28;20693;-55
2022/11/15 10:07:29;;;;;;;35.70;32.40;;;;;;;;;;5032457;28;20236;-55
2022/11/15 10:09:59;;;;;;;36.30;33.13;;;;;;;;;;5042434;28;20619;-57
2022/11/15 10:12:25;;;;;;;36.33;33.00;;;;;;;;;;5032211;28;20625;-55
2022/11/15 10:15:00;;;;;;;35.90;32.63;;;;;;;;;;5032845;28;20597;-55
2022/11/15 10:17:38;;;;;;;35.63;32.53;;;;;;;;;;5032638;28;20177;-55
2022/11/15 10:20:03;;;;;;;35.20;32.00;;;;;;;;;;5032572;28;20629;-54
2022/11/15 10:22:38;;;;;;;35.75;32.58;;;;;;;;;;5032188;28;20596;-55
2022/11/15 10:25:03;;;;;;;36.23;33.13;;;;;;;;;;5031621;28;20644;-55
2022/11/15 10:27:29;;;;;;;36.10;32.83;;;;;;;;;;5032184;28;21021;-55
2022/11/15 10:29:54;;;;;;;36.43;32.70;;;;;;;;;;5032313;28;20663;-55
2022/11/15 10:32:20;;;;;;;35.87;32.63;;;;;;;;;;5032181;28;20626;-55
2022/11/15 10:34:46;;;;;;;36.70;33.20;;;;;;;;;;5032162;28;20174;-55
2022/11/15 10:37:11;;;;;;;34.73;31.33;;;;;;;;;;5031624;28;20606;-55
2022/11/15 10:39:36;;;;;;;36.13;32.53;;;;;;;;;;5032307;28;20205;-56
2022/11/15 10:42:20;;;;;;;36.43;33.03;;;;;;;;;;5040963;28;20181;-55
2022/11/15 10:44:45;;;;;;;35.20;32.00;;;;;;;;;;5047847;28;20705;-55
2022/11/15 10:47:28;;;;;;;35.10;31.80;;;;;;;;;;5031678;28;20646;-54
2022/11/15 10:49:57;;;;;;;34.90;31.60;;;;;;;;;;5031653;28;20182;-56
2022/11/15 10:52:24;;;;;;;35.40;32.00;;;;;;;;;;5031403;28;20968;-55
2022/11/15 10:55:08;;;;;;;34.20;31.10;;;;;;;;;;5031643;28;20656;-55
2022/11/15 10:57:36;;;;;;;36.07;32.90;;;;;;;;;;5031627;28;20671;-55
2022/11/15 11:00:04;;;;;;;35.07;31.97;;;;;;;;;;5031570;28;21001;-56
2022/11/15 11:02:37;;;;;;;34.57;31.50;;;;;;;;;;5031651;28;20605;-56
2022/11/15 11:05:03;;;;;;;33.93;31.03;;;;;;;;;;5031304;28;21180;-56
2022/11/15 11:07:30;;;;;;;35.30;32.00;;;;;;;;;;5044322;28;20665;-56
2022/11/15 11:10:00;;;;;;;35.03;31.83;;;;;;;;;;5031548;28;20607;-57
2022/11/15 11:12:31;;;;;;;34.80;31.80;;;;;;;;;;5031192;28;20605;-56
2022/11/15 11:14:57;;;;;;;36.23;32.97;;;;;;;;;;5033876;28;21168;-56
2022/11/15 11:17:22;;;;;;;32.03;29.27;;;;;;;;;;5031055;28;20700;-55
2022/11/15 11:19:50;;;;;;;33.58;30.58;;;;;;;;;;5046718;28;20204;-56
2022/11/15 11:22:19;;;;;;;32.30;29.20;;;;;;;;;;5051023;28;20188;-55
2022/11/15 11:24:44;;;;;;;32.13;29.23;;;;;;;;;;5051247;28;20626;-56
2022/11/15 11:27:28;;;;;;;31.40;28.60;;;;;;;;;;5051284;28;20581;-56
2022/11/15 11:29:59;;;;;;;32.17;29.27;;;;;;;;;;5038158;28;20199;-57
2022/11/15 11:32:37;;;;;;;31.27;28.50;;;;;;;;;;5030831;28;20603;-57
2022/11/15 11:35:12;;;;;;;31.67;28.67;;;;;;;;;;5041039;28;20673;-56
2022/11/15 11:37:57;;;;;;;31.63;28.73;;;;;;;;;;5051288;28;21154;-57
2022/11/15 11:40:39;;;;;;;34.10;31.03;;;;;;;;;;5044836;28;20632;-57
2022/11/15 11:43:10;;;;;;;32.00;29.13;;;;;;;;;;5050956;28;20581;-56
2022/11/15 11:45:36;;;;;;;30.80;28.00;;;;;;;;;;5050670;28;21363;-57
2022/11/15 11:48:07;;;;;;;31.45;28.60;;;;;;;;;;5050227;28;21174;-56
2022/11/15 11:50:35;;;;;;;31.17;28.40;;;;;;;;;;5051075;28;20239;-57
2022/11/15 11:53:04;;;;;;;31.67;28.87;;;;;;;;;;5031143;28;20641;-56
2022/11/15 11:55:38;;;;;;;32.33;29.53;;;;;;;;;;5030442;28;20684;-55
2022/11/15 11:58:22;;;;;;;32.20;29.47;;;;;;;;;;5030973;28;20596;-55
2022/11/15 12:00:59;;;;;;;32.73;29.73;;;;;;;;;;5030865;28;20674;-55
2022/11/15 12:03:43;;;;;;;31.87;28.80;;;;;;;;;;5030241;28;20598;-55
2022/11/15 12:06:23;;;;;;;32.80;29.90;;;;;;;;;;5048945;28;20599;-56
2022/11/15 12:09:04;;;;;;;32.77;29.87;;;;;;;;;;5050850;28;21207;-55
2022/11/15 12:11:34;;;;;;;32.13;29.20;;;;;;;;;;5050542;28;20724;-55
2022/11/15 12:14:01;;;;;;;31.93;29.13;;;;;;;;;;5048321;28;20605;-57
2022/11/15 12:16:27;;;;;;;31.63;28.93;;;;;;;;;;5031619;28;20648;-55
2022/11/15 12:18:54;;;;;;;33.83;30.63;;;;;;;;;;5030594;28;20689;-55
2022/11/15 12:21:34;;;;;;;32.07;29.17;;;;;;;;;;5030487;28;20636;-56
2022/11/15 12:24:03;;;;;;;32.87;29.93;;;;;;;;;;5030564;28;20597;-55
2022/11/15 12:26:32;;;;;;;30.50;27.90;;;;;;;;;;5030093;28;20597;-55
2022/11/15 12:28:59;;;;;;;30.70;28.00;;;;;;;;;;5030890;28;20568;-55
2022/11/15 12:31:33;;;;;;;32.63;29.63;;;;;;;;;;5030482;28;20575;-57
2022/11/15 12:34:00;;;;;;;31.80;28.67;;;;;;;;;;5030452;28;20922;-58
2022/11/15 12:36:35;;;;;;;33.40;30.20;;;;;;;;;;5030343;28;20589;-57
2022/11/15 12:39:01;;;;;;;31.37;28.67;;;;;;;;;;5030252;28;20658;-56
2022/11/15 12:41:26;;;;;;;31.87;28.90;;;;;;;;;;5030343;28;20624;-58
2022/11/15 12:43:51;;;;;;;31.43;28.70;;;;;;;;;;5030391;28;20182;-55
2022/11/15 12:46:22;;;;;;;30.73;27.83;;;;;;;;;;5030461;28;20178;-57
2022/11/15 12:48:52;;;;;;;32.53;29.67;;;;;;;;;;5030576;28;20178;-57
2022/11/15 12:51:19;;;;;;;29.90;27.10;;;;;;;;;;5030174;28;20697;-57
2022/11/15 12:53:44;;;;;;;31.57;28.80;;;;;;;;;;5028652;28;20658;-56
2022/11/15 12:56:14;;;;;;;32.67;29.80;;;;;;;;;;5043809;28;21182;-57
2022/11/15 12:58:52;;;;;;;33.63;30.53;;;;;;;;;;5050098;28;20256;-57
2022/11/15 13:01:32;;;;;;;31.10;28.30;;;;;;;;;;5053873;28;20688;-56
2022/11/15 13:04:16;;;;;;;30.37;27.77;;;;;;;;;;5048008;28;20643;-56
2022/11/15 13:06:47;;;;;;;32.03;29.10;;;;;;;;;;5051294;28;20962;-56
2022/11/15 13:09:30;;;;;;;32.30;29.20;;;;;;;;;;5053907;28;20572;-56
2022/11/15 13:11:57;;;;;;;30.93;28.23;;;;;;;;;;5053954;28;20610;-56
2022/11/15 13:14:37;;;;;;;32.80;29.70;;;;;;;;;;5053357;28;20956;-58
2022/11/15 13:17:21;;;;;;;30.20;27.57;;;;;;;;;;5039016;28;20702;-56
2022/11/15 13:19:47;;;;;;;31.03;28.27;;;;;;;;;;5033611;28;20629;-57
2022/11/15 13:24:57;;;;;;;31.47;28.87;;;;;;;;;;5053168;28;20917;-55
2022/11/15 13:27:22;;;;;;;32.60;29.80;;;;;;;;;;5039685;28;20589;-55
2022/11/15 13:29:47;;;;;;;32.30;29.50;;;;;;;;;;5033829;28;20473;-55
2022/11/15 13:32:13;;;;;;;31.80;28.90;;;;;;;;;;5033329;28;20184;-55
2022/11/15 13:34:38;;;;;;;32.17;29.17;;;;;;;;;;5033439;28;20178;-54
2022/11/15 13:37:08;;;;;;;33.20;30.17;;;;;;;;;;5039273;28;20174;-56
2022/11/15 13:39:37;;;;;;;33.90;30.60;;;;;;;;;;5053000;28;20176;-55
2022/11/15 13:42:02;;;;;;;33.03;30.03;;;;;;;;;;5053336;28;20630;-55
2022/11/15 13:44:29;;;;;;;31.57;28.67;;;;;;;;;;5052884;28;20579;-56
2022/11/15 13:47:01;;;;;;;30.93;28.13;;;;;;;;;;5051298;28;20251;-56
2022/11/15 13:49:31;;;;;;;32.93;30.07;;;;;;;;;;5033023;28;20577;-54
2022/11/15 13:51:57;;;;;;;32.90;29.80;;;;;;;;;;5046080;28;20630;-57
2022/11/15 13:54:36;;;;;;;32.23;29.33;;;;;;;;;;5052261;28;20640;-55
2022/11/15 13:57:03;;;;;;;31.67;28.87;;;;;;;;;;5052487;28;21152;-56
2022/11/15 13:59:29;;;;;;;34.23;31.20;;;;;;;;;;5050903;28;20606;-55
2022/11/15 14:01:56;;;;;;;33.50;30.43;;;;;;;;;;5052836;28;20584;-57
2022/11/15 14:04:22;;;;;;;33.17;30.20;;;;;;;;;;5035581;28;20660;-55
2022/11/15 14:06:50;;;;;;;33.27;30.30;;;;;;;;;;5032682;28;20686;-55
2022/11/15 14:09:15;;;;;;;32.47;29.57;;;;;;;;;;5042563;28;20594;-56
2022/11/15 14:11:50;;;;;;;33.77;30.63;;;;;;;;;;5051891;28;20567;-57
2022/11/15 14:14:15;;;;;;;31.27;28.37;;;;;;;;;;5052759;28;20208;-55
2022/11/15 14:16:45;;;;;;;35.17;31.97;;;;;;;;;;5052033;28;21225;-56
2022/11/15 14:19:12;;;;;;;35.40;32.30;;;;;;;;;;5050868;28;20178;-56
2022/11/15 14:21:57;;;;;;;35.60;32.50;;;;;;;;;;5051492;28;20634;-56
2022/11/15 14:24:29;;;;;;;32.77;29.83;;;;;;;;;;5032254;28;20618;-56
2022/11/15 14:26:54;;;;;;;34.43;30.80;;;;;;;;;;5032001;28;20601;-55
2022/11/15 14:29:26;;;;;;;33.67;30.67;;;;;;;;;;5032312;28;20561;-56
2022/11/15 14:31:52;;;;;;;34.57;31.33;;;;;;;;;;5032378;28;20539;-56
2022/11/15 14:34:18;;;;;;;32.83;29.93;;;;;;;;;;5032243;28;20587;-55
2022/11/15 14:36:43;;;;;;;34.30;31.10;;;;;;;;;;5031986;28;20184;-56